Estación de El Tambo INIA

Ultimos registro cada 15 minutos 59
Estación Fecha / Hora Temperatura Humedad Lluvia Velocidad Dirección Radiación Presion
59 El Tambo INIA 06-09-2026 14:30 21,1 37,3 0 1,1 275 609,3 982
58 El Tambo INIA 06-09-2026 14:15 20,8 35,8 0 1 288 631,6 982
57 El Tambo INIA 06-09-2026 14:00 20,4 35,2 0 1,6 285 649,5 982
56 El Tambo INIA 06-09-2026 13:45 20,4 33,8 0 1 264 665,1 982
55 El Tambo INIA 06-09-2026 13:30 20,2 33,2 0 0,9 246 676,2 983
54 El Tambo INIA 06-09-2026 13:15 19,7 34,5 0 0,9 254 680,6 983
53 El Tambo INIA 06-09-2026 13:00 19,3 34,3 0 0,9 261 683,4 983
52 El Tambo INIA 06-09-2026 12:45 18,8 33,5 0 0,7 262 685,6 983
51 El Tambo INIA 06-09-2026 12:30 18,4 35,2 0 0,7 237 684,3 983
50 El Tambo INIA 06-09-2026 12:15 18 38,2 0 0,7 240 671,8 983
49 El Tambo INIA 06-09-2026 12:00 17,3 40,7 0 0,7 240 662,6 983
48 El Tambo INIA 06-09-2026 11:45 16,8 40,4 0 0,7 263 652,5 984
47 El Tambo INIA 06-09-2026 11:30 16,5 41,1 0 0,4 222 634,4 983
46 El Tambo INIA 06-09-2026 11:15 15,7 42,4 0 0,2 210 612,9 983
45 El Tambo INIA 06-09-2026 11:00 15,1 48,9 0 0,4 280 589,8 983
44 El Tambo INIA 06-09-2026 10:45 14,5 46,4 0 0,4 253 563,2 983
43 El Tambo INIA 06-09-2026 10:30 13,8 49,2 0 0,2 237 534 984
42 El Tambo INIA 06-09-2026 10:15 12,7 55,4 0 0,3 263 501,6 983
41 El Tambo INIA 06-09-2026 10:00 11,6 60,4 0 0,5 273 466,1 983
40 El Tambo INIA 06-09-2026 09:45 10,9 62,2 0 0,4 288 428,6 984
39 El Tambo INIA 06-09-2026 09:30 10,4 63,9 0 0,1 290 389,3 983
38 El Tambo INIA 06-09-2026 09:15 10,4 65,9 0 0 306 349,6 983
37 El Tambo INIA 06-09-2026 09:00 9,2 65,4 0 0 0 306,2 983
36 El Tambo INIA 06-09-2026 08:45 7,9 71,5 0 0 39 262 983
35 El Tambo INIA 06-09-2026 08:30 6,5 76,9 0 0,1 74 218,8 983
34 El Tambo INIA 06-09-2026 08:15 5,7 80,9 0 0,2 86 178,3 983
33 El Tambo INIA 06-09-2026 08:00 4,4 83,9 0 0 86 136,8 983
32 El Tambo INIA 06-09-2026 07:45 3,4 90,2 0 0,2 80 94,5 983
31 El Tambo INIA 06-09-2026 07:30 2,4 94,8 0 0,1 78 47,6 983
30 El Tambo INIA 06-09-2026 07:15 1,6 96,8 0 0 0 9,9 983
29 El Tambo INIA 06-09-2026 07:00 1,7 95,7 0 0 0 2,9 983
28 El Tambo INIA 06-09-2026 06:45 2 94,9 0 0 0 0,4 983
27 El Tambo INIA 06-09-2026 06:30 1,8 96,7 0 0 0 0 983
26 El Tambo INIA 06-09-2026 06:15 2 94,8 0 0 0 0 983
25 El Tambo INIA 06-09-2026 06:00 2,3 95,4 0 0 0 0 983
24 El Tambo INIA 06-09-2026 05:45 2,6 94,9 0 0 0 0 983
23 El Tambo INIA 06-09-2026 05:30 3 93,9 0 0 71 0 983
22 El Tambo INIA 06-09-2026 05:15 3 94,2 0 0 79 0 983
21 El Tambo INIA 06-09-2026 05:00 2,9 94,6 0 0 79 0 983
20 El Tambo INIA 06-09-2026 04:45 2,9 94,3 0 0 52 0 983
19 El Tambo INIA 06-09-2026 04:30 3,5 92,6 0 0 0 0 983
18 El Tambo INIA 06-09-2026 04:15 3,7 93,4 0 0 0 0 983
17 El Tambo INIA 06-09-2026 04:00 4 92,2 0 0,1 77 0 983
16 El Tambo INIA 06-09-2026 03:45 3,9 93 0 0,1 81 0 983
15 El Tambo INIA 06-09-2026 03:30 3,7 93,4 0 0 82 0 984
14 El Tambo INIA 06-09-2026 03:15 3,7 93,4 0 0 0 0 984
13 El Tambo INIA 06-09-2026 03:00 3,8 93,2 0 0 0 0 984
12 El Tambo INIA 06-09-2026 02:45 4,2 91,5 0 0 0 0 984
11 El Tambo INIA 06-09-2026 02:30 4,4 90,3 0 0 0 0 984
10 El Tambo INIA 06-09-2026 02:15 4,7 90,1 0 0 0 0 984
9 El Tambo INIA 06-09-2026 02:00 5,6 87,4 0 0 0 0 985
8 El Tambo INIA 06-09-2026 01:45 6,3 84,4 0 0 0 0 985
7 El Tambo INIA 06-09-2026 01:30 7 80,3 0 0 0 0 985
6 El Tambo INIA 06-09-2026 01:15 7,3 79,1 0 0 94 0 985
5 El Tambo INIA 06-09-2026 01:00 7,2 78,8 0 0 96 0 985
4 El Tambo INIA 06-09-2026 00:45 7,1 79,5 0 0 0 0 985
3 El Tambo INIA 06-09-2026 00:30 7,8 78,1 0 0 0 0 985
2 El Tambo INIA 06-09-2026 00:15 7,9 75,4 0 0 84 0 985
1 El Tambo INIA 06-09-2026 00:00 8,2 76,5 0 0 0 0 985